sensor_id;sensor_type;location;lat;lon;timestamp;temperature;humidity
81136;DHT22;70622;50.886;3.890;2023-11-19T00:00:50;13.60;99.90
81136;DHT22;70622;50.886;3.890;2023-11-19T00:03:16;13.60;99.90
81136;DHT22;70622;50.886;3.890;2023-11-19T00:05:41;13.60;99.90
81136;DHT22;70622;50.886;3.890;2023-11-19T00:08:07;13.60;99.90
81136;DHT22;70622;50.886;3.890;2023-11-19T00:10:34;13.60;99.90
81136;DHT22;70622;50.886;3.890;2023-11-19T00:12:59;13.60;99.90
81136;DHT22;70622;50.886;3.890;2023-11-19T00:15:25;13.60;99.90
81136;DHT22;70622;50.886;3.890;2023-11-19T00:17:50;13.70;99.90
81136;DHT22;70622;50.886;3.890;2023-11-19T00:20:17;13.70;99.90
81136;DHT22;70622;50.886;3.890;2023-11-19T00:22:42;13.70;99.90
81136;DHT22;70622;50.886;3.890;2023-11-19T00:25:08;13.70;99.90
81136;DHT22;70622;50.886;3.890;2023-11-19T00:27:34;13.60;99.90
81136;DHT22;70622;50.886;3.890;2023-11-19T00:30:00;13.60;99.90
81136;DHT22;70622;50.886;3.890;2023-11-19T00:32:25;13.60;99.90
81136;DHT22;70622;50.886;3.890;2023-11-19T00:34:51;13.60;99.90
81136;DHT22;70622;50.886;3.890;2023-11-19T00:37:17;13.60;99.90
81136;DHT22;70622;50.886;3.890;2023-11-19T00:39:42;13.60;99.90
81136;DHT22;70622;50.886;3.890;2023-11-19T00:42:09;13.60;99.90
81136;DHT22;70622;50.886;3.890;2023-11-19T00:44:35;13.60;99.90
81136;DHT22;70622;50.886;3.890;2023-11-19T00:47:01;13.60;99.90
81136;DHT22;70622;50.886;3.890;2023-11-19T00:49:26;13.60;99.90
81136;DHT22;70622;50.886;3.890;2023-11-19T00:51:52;13.60;99.90
81136;DHT22;70622;50.886;3.890;2023-11-19T00:54:18;13.60;99.90
81136;DHT22;70622;50.886;3.890;2023-11-19T00:56:43;13.60;99.70
81136;DHT22;70622;50.886;3.890;2023-11-19T00:59:10;13.60;99.50
81136;DHT22;70622;50.886;3.890;2023-11-19T01:01:35;13.60;99.40
81136;DHT22;70622;50.886;3.890;2023-11-19T01:04:01;13.60;99.60
81136;DHT22;70622;50.886;3.890;2023-11-19T01:06:30;13.50;99.50
81136;DHT22;70622;50.886;3.890;2023-11-19T01:08:56;13.50;99.60
81136;DHT22;70622;50.886;3.890;2023-11-19T01:11:22;13.40;99.90
81136;DHT22;70622;50.886;3.890;2023-11-19T01:13:48;13.40;99.90
81136;DHT22;70622;50.886;3.890;2023-11-19T01:16:14;13.30;99.90
81136;DHT22;70622;50.886;3.890;2023-11-19T01:18:40;13.20;99.90
81136;DHT22;70622;50.886;3.890;2023-11-19T01:21:05;13.10;99.90
81136;DHT22;70622;50.886;3.890;2023-11-19T01:23:31;13.00;99.90
81136;DHT22;70622;50.886;3.890;2023-11-19T01:25:58;13.00;99.90
81136;DHT22;70622;50.886;3.890;2023-11-19T01:28:23;13.00;99.90
81136;DHT22;70622;50.886;3.890;2023-11-19T01:30:52;13.00;99.90
81136;DHT22;70622;50.886;3.890;2023-11-19T01:33:18;13.10;99.90
81136;DHT22;70622;50.886;3.890;2023-11-19T01:35:44;13.20;99.80
81136;DHT22;70622;50.886;3.890;2023-11-19T01:38:09;13.20;99.80
81136;DHT22;70622;50.886;3.890;2023-11-19T01:40:36;13.20;99.80
81136;DHT22;70622;50.886;3.890;2023-11-19T01:43:02;13.20;99.90
81136;DHT22;70622;50.886;3.890;2023-11-19T01:45:28;13.10;99.90
81136;DHT22;70622;50.886;3.890;2023-11-19T01:47:58;13.00;99.90
81136;DHT22;70622;50.886;3.890;2023-11-19T01:50:24;13.00;99.90
81136;DHT22;70622;50.886;3.890;2023-11-19T01:52:52;13.00;99.90
81136;DHT22;70622;50.886;3.890;2023-11-19T01:55:17;13.00;99.90
81136;DHT22;70622;50.886;3.890;2023-11-19T01:57:43;13.00;99.70
81136;DHT22;70622;50.886;3.890;2023-11-19T02:00:09;13.10;99.30
81136;DHT22;70622;50.886;3.890;2023-11-19T02:02:39;13.10;98.90
81136;DHT22;70622;50.886;3.890;2023-11-19T02:05:05;13.10;98.70
81136;DHT22;70622;50.886;3.890;2023-11-19T02:07:31;13.10;98.30
81136;DHT22;70622;50.886;3.890;2023-11-19T02:09:57;13.20;98.00
81136;DHT22;70622;50.886;3.890;2023-11-19T02:12:25;13.20;97.90
81136;DHT22;70622;50.886;3.890;2023-11-19T02:14:53;13.20;97.80
81136;DHT22;70622;50.886;3.890;2023-11-19T02:17:24;13.20;97.80
81136;DHT22;70622;50.886;3.890;2023-11-19T02:19:50;13.20;97.70
81136;DHT22;70622;50.886;3.890;2023-11-19T02:22:15;13.20;97.80
81136;DHT22;70622;50.886;3.890;2023-11-19T02:24:41;13.00;97.80
81136;DHT22;70622;50.886;3.890;2023-11-19T02:29:52;12.90;97.70
81136;DHT22;70622;50.886;3.890;2023-11-19T02:32:19;12.90;97.60
81136;DHT22;70622;50.886;3.890;2023-11-19T02:34:44;12.90;97.70
81136;DHT22;70622;50.886;3.890;2023-11-19T02:37:10;12.80;97.80
81136;DHT22;70622;50.886;3.890;2023-11-19T02:39:35;12.70;97.90
81136;DHT22;70622;50.886;3.890;2023-11-19T02:42:02;12.60;98.10
81136;DHT22;70622;50.886;3.890;2023-11-19T02:44:27;12.60;98.20
81136;DHT22;70622;50.886;3.890;2023-11-19T02:46:55;12.60;98.10
81136;DHT22;70622;50.886;3.890;2023-11-19T02:49:24;12.70;98.00
81136;DHT22;70622;50.886;3.890;2023-11-19T02:51:50;12.60;98.10
81136;DHT22;70622;50.886;3.890;2023-11-19T02:54:15;12.60;98.20
81136;DHT22;70622;50.886;3.890;2023-11-19T02:56:44;12.60;98.10
81136;DHT22;70622;50.886;3.890;2023-11-19T02:59:13;12.60;98.10
81136;DHT22;70622;50.886;3.890;2023-11-19T03:01:52;12.60;97.90
81136;DHT22;70622;50.886;3.890;2023-11-19T03:04:17;12.60;98.00
81136;DHT22;70622;50.886;3.890;2023-11-19T03:06:45;12.60;98.00
81136;DHT22;70622;50.886;3.890;2023-11-19T03:09:11;12.50;98.10
81136;DHT22;70622;50.886;3.890;2023-11-19T03:11:40;12.50;98.50
81136;DHT22;70622;50.886;3.890;2023-11-19T03:14:06;12.50;98.20
81136;DHT22;70622;50.886;3.890;2023-11-19T03:16:32;12.40;98.30
81136;DHT22;70622;50.886;3.890;2023-11-19T03:18:58;12.40;98.10
81136;DHT22;70622;50.886;3.890;2023-11-19T03:21:29;12.40;98.00
81136;DHT22;70622;50.886;3.890;2023-11-19T03:23:54;12.40;97.90
81136;DHT22;70622;50.886;3.890;2023-11-19T03:26:20;12.30;97.90
81136;DHT22;70622;50.886;3.890;2023-11-19T03:28:47;12.30;97.80
81136;DHT22;70622;50.886;3.890;2023-11-19T03:31:12;12.30;97.70
81136;DHT22;70622;50.886;3.890;2023-11-19T03:33:38;12.30;97.60
81136;DHT22;70622;50.886;3.890;2023-11-19T03:36:04;12.20;97.50
81136;DHT22;70622;50.886;3.890;2023-11-19T03:38:30;12.20;97.40
81136;DHT22;70622;50.886;3.890;2023-11-19T03:40:55;12.30;97.20
81136;DHT22;70622;50.886;3.890;2023-11-19T03:43:21;12.30;96.90
81136;DHT22;70622;50.886;3.890;2023-11-19T03:45:46;12.30;96.90
81136;DHT22;70622;50.886;3.890;2023-11-19T03:48:12;12.20;96.80
81136;DHT22;70622;50.886;3.890;2023-11-19T03:50:37;12.30;96.80
81136;DHT22;70622;50.886;3.890;2023-11-19T03:53:03;12.40;96.60
81136;DHT22;70622;50.886;3.890;2023-11-19T03:55:29;12.40;96.60
81136;DHT22;70622;50.886;3.890;2023-11-19T03:57:55;12.40;96.30
81136;DHT22;70622;50.886;3.890;2023-11-19T04:00:20;12.50;96.30
81136;DHT22;70622;50.886;3.890;2023-11-19T04:02:46;12.50;96.20
81136;DHT22;70622;50.886;3.890;2023-11-19T04:05:12;12.50;96.20
81136;DHT22;70622;50.886;3.890;2023-11-19T04:07:37;12.50;96.40
81136;DHT22;70622;50.886;3.890;2023-11-19T04:10:03;12.50;96.30
81136;DHT22;70622;50.886;3.890;2023-11-19T04:12:29;12.50;96.20
81136;DHT22;70622;50.886;3.890;2023-11-19T04:14:54;12.40;96.20
81136;DHT22;70622;50.886;3.890;2023-11-19T04:17:21;12.30;96.20
81136;DHT22;70622;50.886;3.890;2023-11-19T04:19:48;12.30;96.20
81136;DHT22;70622;50.886;3.890;2023-11-19T04:22:14;12.30;96.10
81136;DHT22;70622;50.886;3.890;2023-11-19T04:24:39;12.20;96.10
81136;DHT22;70622;50.886;3.890;2023-11-19T04:27:06;12.20;95.90
81136;DHT22;70622;50.886;3.890;2023-11-19T04:29:31;12.20;95.70
81136;DHT22;70622;50.886;3.890;2023-11-19T04:31:57;12.20;95.40
81136;DHT22;70622;50.886;3.890;2023-11-19T04:34:23;12.30;95.10
81136;DHT22;70622;50.886;3.890;2023-11-19T04:36:49;12.30;94.70
81136;DHT22;70622;50.886;3.890;2023-11-19T04:39:14;12.20;94.70
81136;DHT22;70622;50.886;3.890;2023-11-19T04:41:47;12.20;94.60
81136;DHT22;70622;50.886;3.890;2023-11-19T04:44:14;12.20;94.20
81136;DHT22;70622;50.886;3.890;2023-11-19T04:46:41;12.20;94.10
81136;DHT22;70622;50.886;3.890;2023-11-19T04:49:08;12.20;94.10
81136;DHT22;70622;50.886;3.890;2023-11-19T04:51:39;12.10;94.00
81136;DHT22;70622;50.886;3.890;2023-11-19T04:54:05;12.10;94.30
81136;DHT22;70622;50.886;3.890;2023-11-19T04:56:32;12.00;94.80
81136;DHT22;70622;50.886;3.890;2023-11-19T04:58:57;12.00;94.00
81136;DHT22;70622;50.886;3.890;2023-11-19T05:01:23;12.00;94.00
81136;DHT22;70622;50.886;3.890;2023-11-19T05:03:48;12.00;94.00
81136;DHT22;70622;50.886;3.890;2023-11-19T05:06:14;12.00;94.20
81136;DHT22;70622;50.886;3.890;2023-11-19T05:08:40;11.90;94.70
81136;DHT22;70622;50.886;3.890;2023-11-19T05:11:06;11.80;95.30
81136;DHT22;70622;50.886;3.890;2023-11-19T05:13:31;11.80;95.70
81136;DHT22;70622;50.886;3.890;2023-11-19T05:15:57;11.70;96.10
81136;DHT22;70622;50.886;3.890;2023-11-19T05:18:22;11.70;96.50
81136;DHT22;70622;50.886;3.890;2023-11-19T05:20:48;11.60;96.80
81136;DHT22;70622;50.886;3.890;2023-11-19T05:23:14;11.60;97.00
81136;DHT22;70622;50.886;3.890;2023-11-19T05:25:39;11.50;97.10
81136;DHT22;70622;50.886;3.890;2023-11-19T05:28:05;11.50;97.30
81136;DHT22;70622;50.886;3.890;2023-11-19T05:30:30;11.50;97.40
81136;DHT22;70622;50.886;3.890;2023-11-19T05:32:56;11.50;97.40
81136;DHT22;70622;50.886;3.890;2023-11-19T05:35:21;11.50;97.40
81136;DHT22;70622;50.886;3.890;2023-11-19T05:37:47;11.50;97.10
81136;DHT22;70622;50.886;3.890;2023-11-19T05:40:12;11.60;96.80
81136;DHT22;70622;50.886;3.890;2023-11-19T05:42:40;11.60;96.60
81136;DHT22;70622;50.886;3.890;2023-11-19T05:45:05;11.60;96.30
81136;DHT22;70622;50.886;3.890;2023-11-19T05:47:33;11.60;96.40
81136;DHT22;70622;50.886;3.890;2023-11-19T05:49:58;11.60;96.20
81136;DHT22;70622;50.886;3.890;2023-11-19T05:52:24;11.60;96.30
81136;DHT22;70622;50.886;3.890;2023-11-19T05:54:49;11.50;96.40
81136;DHT22;70622;50.886;3.890;2023-11-19T05:57:17;11.50;96.30
81136;DHT22;70622;50.886;3.890;2023-11-19T05:59:48;11.50;96.30
81136;DHT22;70622;50.886;3.890;2023-11-19T06:02:13;11.50;96.40
81136;DHT22;70622;50.886;3.890;2023-11-19T06:04:39;11.40;96.30
81136;DHT22;70622;50.886;3.890;2023-11-19T06:07:04;11.40;96.30
81136;DHT22;70622;50.886;3.890;2023-11-19T06:09:30;11.40;96.40
81136;DHT22;70622;50.886;3.890;2023-11-19T06:11:59;11.30;96.50
81136;DHT22;70622;50.886;3.890;2023-11-19T06:14:27;11.30;96.80
81136;DHT22;70622;50.886;3.890;2023-11-19T06:16:52;11.30;96.90
81136;DHT22;70622;50.886;3.890;2023-11-19T06:19:18;11.30;97.10
81136;DHT22;70622;50.886;3.890;2023-11-19T06:21:43;11.30;97.20
81136;DHT22;70622;50.886;3.890;2023-11-19T06:24:09;11.30;97.30
81136;DHT22;70622;50.886;3.890;2023-11-19T06:26:34;11.20;97.40
81136;DHT22;70622;50.886;3.890;2023-11-19T06:29:00;11.20;97.30
81136;DHT22;70622;50.886;3.890;2023-11-19T06:31:26;11.30;97.40
81136;DHT22;70622;50.886;3.890;2023-11-19T06:33:51;11.20;97.40
81136;DHT22;70622;50.886;3.890;2023-11-19T06:36:16;11.20;97.40
81136;DHT22;70622;50.886;3.890;2023-11-19T06:38:42;11.20;97.40
81136;DHT22;70622;50.886;3.890;2023-11-19T06:41:08;11.20;97.40
81136;DHT22;70622;50.886;3.890;2023-11-19T06:43:37;11.20;97.30
81136;DHT22;70622;50.886;3.890;2023-11-19T06:46:03;11.20;97.20
81136;DHT22;70622;50.886;3.890;2023-11-19T06:48:34;11.20;97.20
81136;DHT22;70622;50.886;3.890;2023-11-19T06:50:59;11.20;97.10
81136;DHT22;70622;50.886;3.890;2023-11-19T06:53:25;11.20;97.00
81136;DHT22;70622;50.886;3.890;2023-11-19T06:55:50;11.20;97.00
81136;DHT22;70622;50.886;3.890;2023-11-19T06:58:16;11.10;97.20
81136;DHT22;70622;50.886;3.890;2023-11-19T07:00:43;11.20;97.10
81136;DHT22;70622;50.886;3.890;2023-11-19T07:03:08;11.30;97.10
81136;DHT22;70622;50.886;3.890;2023-11-19T07:05:37;11.30;97.00
81136;DHT22;70622;50.886;3.890;2023-11-19T07:08:06;11.40;97.00
81136;DHT22;70622;50.886;3.890;2023-11-19T07:10:32;11.40;96.90
81136;DHT22;70622;50.886;3.890;2023-11-19T07:12:59;11.40;96.80
81136;DHT22;70622;50.886;3.890;2023-11-19T07:15:24;11.40;96.80
81136;DHT22;70622;50.886;3.890;2023-11-19T07:17:50;11.30;96.60
81136;DHT22;70622;50.886;3.890;2023-11-19T07:20:15;11.30;96.60
81136;DHT22;70622;50.886;3.890;2023-11-19T07:22:44;11.30;96.50
81136;DHT22;70622;50.886;3.890;2023-11-19T07:25:13;11.30;96.50
81136;DHT22;70622;50.886;3.890;2023-11-19T07:27:38;11.30;96.50
81136;DHT22;70622;50.886;3.890;2023-11-19T07:30:04;11.30;96.40
81136;DHT22;70622;50.886;3.890;2023-11-19T07:32:30;11.40;96.30
81136;DHT22;70622;50.886;3.890;2023-11-19T07:34:56;11.40;96.10
81136;DHT22;70622;50.886;3.890;2023-11-19T07:37:21;11.40;96.10
81136;DHT22;70622;50.886;3.890;2023-11-19T07:39:47;11.50;96.00
81136;DHT22;70622;50.886;3.890;2023-11-19T07:42:13;11.60;95.90
81136;DHT22;70622;50.886;3.890;2023-11-19T07:44:38;11.70;95.70
81136;DHT22;70622;50.886;3.890;2023-11-19T07:47:04;11.70;95.70
81136;DHT22;70622;50.886;3.890;2023-11-19T07:49:29;11.60;95.70
81136;DHT22;70622;50.886;3.890;2023-11-19T07:51:56;11.60;95.80
81136;DHT22;70622;50.886;3.890;2023-11-19T07:54:21;11.70;95.70
81136;DHT22;70622;50.886;3.890;2023-11-19T07:56:47;11.80;95.50
81136;DHT22;70622;50.886;3.890;2023-11-19T07:59:12;11.80;95.30
81136;DHT22;70622;50.886;3.890;2023-11-19T08:01:38;11.80;95.40
81136;DHT22;70622;50.886;3.890;2023-11-19T08:04:04;11.80;95.40
81136;DHT22;70622;50.886;3.890;2023-11-19T08:06:29;11.70;95.40
81136;DHT22;70622;50.886;3.890;2023-11-19T08:08:55;11.70;95.40
81136;DHT22;70622;50.886;3.890;2023-11-19T08:11:20;11.80;95.30
81136;DHT22;70622;50.886;3.890;2023-11-19T08:13:46;11.90;95.20
81136;DHT22;70622;50.886;3.890;2023-11-19T08:16:11;11.90;95.00
81136;DHT22;70622;50.886;3.890;2023-11-19T08:18:37;12.00;94.80
81136;DHT22;70622;50.886;3.890;2023-11-19T08:21:03;12.10;94.60
81136;DHT22;70622;50.886;3.890;2023-11-19T08:23:30;12.10;94.70
81136;DHT22;70622;50.886;3.890;2023-11-19T08:25:55;12.10;94.90
81136;DHT22;70622;50.886;3.890;2023-11-19T08:28:21;12.00;95.80
81136;DHT22;70622;50.886;3.890;2023-11-19T08:30:46;11.90;96.30
81136;DHT22;70622;50.886;3.890;2023-11-19T08:33:12;11.90;96.20
81136;DHT22;70622;50.886;3.890;2023-11-19T08:35:37;11.90;96.30
81136;DHT22;70622;50.886;3.890;2023-11-19T08:38:03;11.80;96.70
81136;DHT22;70622;50.886;3.890;2023-11-19T08:40:28;11.80;96.50
81136;DHT22;70622;50.886;3.890;2023-11-19T08:42:57;11.70;96.60
81136;DHT22;70622;50.886;3.890;2023-11-19T08:45:22;11.70;96.60
81136;DHT22;70622;50.886;3.890;2023-11-19T08:47:48;11.60;96.80
81136;DHT22;70622;50.886;3.890;2023-11-19T08:50:14;11.60;96.30
81136;DHT22;70622;50.886;3.890;2023-11-19T08:52:39;11.70;95.50
81136;DHT22;70622;50.886;3.890;2023-11-19T08:55:05;11.80;95.40
81136;DHT22;70622;50.886;3.890;2023-11-19T08:57:33;11.80;95.30
81136;DHT22;70622;50.886;3.890;2023-11-19T08:59:59;11.80;95.40
81136;DHT22;70622;50.886;3.890;2023-11-19T09:02:25;11.90;95.30
81136;DHT22;70622;50.886;3.890;2023-11-19T09:04:50;11.90;95.20
81136;DHT22;70622;50.886;3.890;2023-11-19T09:07:16;11.90;95.20
81136;DHT22;70622;50.886;3.890;2023-11-19T09:09:42;11.90;95.20
81136;DHT22;70622;50.886;3.890;2023-11-19T09:12:07;11.90;95.10
81136;DHT22;70622;50.886;3.890;2023-11-19T09:14:33;12.00;94.80
81136;DHT22;70622;50.886;3.890;2023-11-19T09:16:59;12.00;94.60
81136;DHT22;70622;50.886;3.890;2023-11-19T09:19:25;12.10;94.50
81136;DHT22;70622;50.886;3.890;2023-11-19T09:21:52;12.30;94.40
81136;DHT22;70622;50.886;3.890;2023-11-19T09:24:18;12.40;94.20
81136;DHT22;70622;50.886;3.890;2023-11-19T09:26:43;12.40;94.00
81136;DHT22;70622;50.886;3.890;2023-11-19T09:29:09;12.40;93.80
81136;DHT22;70622;50.886;3.890;2023-11-19T09:31:34;12.30;93.80
81136;DHT22;70622;50.886;3.890;2023-11-19T09:34:00;12.30;93.70
81136;DHT22;70622;50.886;3.890;2023-11-19T09:36:26;12.30;94.00
81136;DHT22;70622;50.886;3.890;2023-11-19T09:38:51;12.30;94.00
81136;DHT22;70622;50.886;3.890;2023-11-19T09:41:17;12.30;93.90
81136;DHT22;70622;50.886;3.890;2023-11-19T09:43:44;12.40;93.80
81136;DHT22;70622;50.886;3.890;2023-11-19T09:46:10;12.40;93.90
81136;DHT22;70622;50.886;3.890;2023-11-19T09:48:37;12.40;93.80
81136;DHT22;70622;50.886;3.890;2023-11-19T09:51:06;12.40;93.60
81136;DHT22;70622;50.886;3.890;2023-11-19T09:53:32;12.50;93.40
81136;DHT22;70622;50.886;3.890;2023-11-19T09:55:59;12.50;93.60
81136;DHT22;70622;50.886;3.890;2023-11-19T09:58:25;12.50;93.60
81136;DHT22;70622;50.886;3.890;2023-11-19T10:00:51;12.70;93.30
81136;DHT22;70622;50.886;3.890;2023-11-19T10:03:17;12.90;93.00
81136;DHT22;70622;50.886;3.890;2023-11-19T10:05:42;13.00;92.30
81136;DHT22;70622;50.886;3.890;2023-11-19T10:08:08;13.20;92.10
81136;DHT22;70622;50.886;3.890;2023-11-19T10:10:34;13.20;91.90
81136;DHT22;70622;50.886;3.890;2023-11-19T10:12:59;13.20;91.70
81136;DHT22;70622;50.886;3.890;2023-11-19T10:15:25;13.20;92.10
81136;DHT22;70622;50.886;3.890;2023-11-19T10:17:54;13.20;91.80
81136;DHT22;70622;50.886;3.890;2023-11-19T10:20:20;13.20;91.80
81136;DHT22;70622;50.886;3.890;2023-11-19T10:22:45;13.10;91.90
81136;DHT22;70622;50.886;3.890;2023-11-19T10:25:27;13.10;91.80
81136;DHT22;70622;50.886;3.890;2023-11-19T10:27:54;13.00;92.10
81136;DHT22;70622;50.886;3.890;2023-11-19T10:30:23;13.10;92.20
81136;DHT22;70622;50.886;3.890;2023-11-19T10:35:50;13.20;91.60
81136;DHT22;70622;50.886;3.890;2023-11-19T10:38:18;13.30;91.60
81136;DHT22;70622;50.886;3.890;2023-11-19T10:40:44;13.30;91.10
81136;DHT22;70622;50.886;3.890;2023-11-19T10:43:09;13.40;90.80
81136;DHT22;70622;50.886;3.890;2023-11-19T10:45:35;13.40;90.60
81136;DHT22;70622;50.886;3.890;2023-11-19T10:48:02;13.40;90.70
81136;DHT22;70622;50.886;3.890;2023-11-19T10:50:27;13.20;91.10
81136;DHT22;70622;50.886;3.890;2023-11-19T10:52:56;13.20;90.90
81136;DHT22;70622;50.886;3.890;2023-11-19T10:55:26;13.10;91.20
81136;DHT22;70622;50.886;3.890;2023-11-19T10:57:52;13.20;91.30
81136;DHT22;70622;50.886;3.890;2023-11-19T11:00:18;13.00;91.40
81136;DHT22;70622;50.886;3.890;2023-11-19T11:02:44;13.10;91.30
81136;DHT22;70622;50.886;3.890;2023-11-19T11:05:11;13.10;91.70
81136;DHT22;70622;50.886;3.890;2023-11-19T11:07:37;13.10;91.70
81136;DHT22;70622;50.886;3.890;2023-11-19T11:10:05;13.10;92.00
81136;DHT22;70622;50.886;3.890;2023-11-19T11:12:33;13.00;92.50
81136;DHT22;70622;50.886;3.890;2023-11-19T11:15:00;12.90;92.50
81136;DHT22;70622;50.886;3.890;2023-11-19T11:17:26;12.80;92.70
81136;DHT22;70622;50.886;3.890;2023-11-19T11:19:53;12.70;92.70
81136;DHT22;70622;50.886;3.890;2023-11-19T11:22:19;12.80;92.60
81136;DHT22;70622;50.886;3.890;2023-11-19T11:27:41;12.90;92.20
81136;DHT22;70622;50.886;3.890;2023-11-19T11:30:11;12.90;92.20
81136;DHT22;70622;50.886;3.890;2023-11-19T11:32:42;13.00;92.20
81136;DHT22;70622;50.886;3.890;2023-11-19T11:35:20;13.20;92.00
81136;DHT22;70622;50.886;3.890;2023-11-19T11:37:50;13.30;91.50
81136;DHT22;70622;50.886;3.890;2023-11-19T11:40:18;13.40;91.50
81136;DHT22;70622;50.886;3.890;2023-11-19T11:42:44;13.60;90.80
81136;DHT22;70622;50.886;3.890;2023-11-19T11:45:16;13.70;90.80
81136;DHT22;70622;50.886;3.890;2023-11-19T11:50:18;14.00;89.90
81136;DHT22;70622;50.886;3.890;2023-11-19T11:58:26;13.80;88.50
81136;DHT22;70622;50.886;3.890;2023-11-19T12:00:52;13.80;89.70
81136;DHT22;70622;50.886;3.890;2023-11-19T12:03:21;13.70;89.60
81136;DHT22;70622;50.886;3.890;2023-11-19T12:05:47;13.50;90.20
81136;DHT22;70622;50.886;3.890;2023-11-19T12:08:14;13.40;90.60
81136;DHT22;70622;50.886;3.890;2023-11-19T12:13:22;13.20;92.00
81136;DHT22;70622;50.886;3.890;2023-11-19T12:18:34;13.20;92.90
81136;DHT22;70622;50.886;3.890;2023-11-19T12:21:00;13.20;93.30
81136;DHT22;70622;50.886;3.890;2023-11-19T12:23:28;13.10;93.10
81136;DHT22;70622;50.886;3.890;2023-11-19T12:25:54;13.10;92.70
81136;DHT22;70622;50.886;3.890;2023-11-19T12:28:20;13.20;92.50
81136;DHT22;70622;50.886;3.890;2023-11-19T12:30:46;13.30;92.20
81136;DHT22;70622;50.886;3.890;2023-11-19T12:33:12;13.20;92.50
81136;DHT22;70622;50.886;3.890;2023-11-19T12:35:41;13.20;92.30
81136;DHT22;70622;50.886;3.890;2023-11-19T12:38:07;13.20;92.50
81136;DHT22;70622;50.886;3.890;2023-11-19T12:40:33;13.30;92.40
81136;DHT22;70622;50.886;3.890;2023-11-19T12:42:59;13.30;92.30
81136;DHT22;70622;50.886;3.890;2023-11-19T12:45:34;13.30;91.90
81136;DHT22;70622;50.886;3.890;2023-11-19T12:48:06;13.30;92.10
81136;DHT22;70622;50.886;3.890;2023-11-19T12:53:22;13.20;92.30
81136;DHT22;70622;50.886;3.890;2023-11-19T12:55:48;13.30;92.30
81136;DHT22;70622;50.886;3.890;2023-11-19T13:01:03;13.20;92.80
81136;DHT22;70622;50.886;3.890;2023-11-19T13:03:33;13.10;92.40
81136;DHT22;70622;50.886;3.890;2023-11-19T13:06:05;13.20;92.20
81136;DHT22;70622;50.886;3.890;2023-11-19T13:08:40;13.30;92.00
81136;DHT22;70622;50.886;3.890;2023-11-19T13:11:06;13.40;92.20
81136;DHT22;70622;50.886;3.890;2023-11-19T13:13:33;13.30;92.30
81136;DHT22;70622;50.886;3.890;2023-11-19T13:16:15;13.20;92.80
81136;DHT22;70622;50.886;3.890;2023-11-19T13:18:40;13.10;92.20
81136;DHT22;70622;50.886;3.890;2023-11-19T13:21:06;13.20;92.10
81136;DHT22;70622;50.886;3.890;2023-11-19T13:23:31;13.40;91.70
81136;DHT22;70622;50.886;3.890;2023-11-19T13:25:57;13.50;91.20
81136;DHT22;70622;50.886;3.890;2023-11-19T13:28:22;13.30;91.20
81136;DHT22;70622;50.886;3.890;2023-11-19T13:30:48;13.20;91.00
81136;DHT22;70622;50.886;3.890;2023-11-19T13:33:13;13.10;91.60
81136;DHT22;70622;50.886;3.890;2023-11-19T13:35:40;13.00;91.80
81136;DHT22;70622;50.886;3.890;2023-11-19T13:38:06;13.20;91.70
81136;DHT22;70622;50.886;3.890;2023-11-19T13:40:31;13.30;91.10
81136;DHT22;70622;50.886;3.890;2023-11-19T13:42:57;13.40;91.20
81136;DHT22;70622;50.886;3.890;2023-11-19T13:45:22;13.30;90.40
81136;DHT22;70622;50.886;3.890;2023-11-19T13:47:48;13.50;90.20
81136;DHT22;70622;50.886;3.890;2023-11-19T13:50:14;13.40;90.90
81136;DHT22;70622;50.886;3.890;2023-11-19T13:52:40;13.30;90.90
81136;DHT22;70622;50.886;3.890;2023-11-19T13:55:07;13.20;90.80
81136;DHT22;70622;50.886;3.890;2023-11-19T13:57:33;13.10;91.10
81136;DHT22;70622;50.886;3.890;2023-11-19T13:59:59;13.00;91.80
81136;DHT22;70622;50.886;3.890;2023-11-19T14:02:25;12.90;92.40
81136;DHT22;70622;50.886;3.890;2023-11-19T14:04:50;12.80;92.70
81136;DHT22;70622;50.886;3.890;2023-11-19T14:07:16;12.80;92.90
81136;DHT22;70622;50.886;3.890;2023-11-19T14:09:42;12.70;92.90
81136;DHT22;70622;50.886;3.890;2023-11-19T14:12:07;12.70;92.90
81136;DHT22;70622;50.886;3.890;2023-11-19T14:14:34;12.70;93.00
81136;DHT22;70622;50.886;3.890;2023-11-19T14:17:01;12.70;92.80
81136;DHT22;70622;50.886;3.890;2023-11-19T14:19:28;12.70;92.60
81136;DHT22;70622;50.886;3.890;2023-11-19T14:21:54;12.60;92.70
81136;DHT22;70622;50.886;3.890;2023-11-19T14:24:20;12.90;92.20
81136;DHT22;70622;50.886;3.890;2023-11-19T14:26:46;13.00;91.70
81136;DHT22;70622;50.886;3.890;2023-11-19T14:29:12;13.10;91.40
81136;DHT22;70622;50.886;3.890;2023-11-19T14:31:38;13.00;90.80
81136;DHT22;70622;50.886;3.890;2023-11-19T14:34:05;13.00;91.10
81136;DHT22;70622;50.886;3.890;2023-11-19T14:36:30;13.00;90.70
81136;DHT22;70622;50.886;3.890;2023-11-19T14:38:56;12.90;90.70
81136;DHT22;70622;50.886;3.890;2023-11-19T14:41:24;13.00;90.80
81136;DHT22;70622;50.886;3.890;2023-11-19T14:43:49;12.90;91.30
81136;DHT22;70622;50.886;3.890;2023-11-19T14:46:15;12.80;91.60
81136;DHT22;70622;50.886;3.890;2023-11-19T14:48:41;12.70;92.00
81136;DHT22;70622;50.886;3.890;2023-11-19T14:51:06;12.70;92.20
81136;DHT22;70622;50.886;3.890;2023-11-19T14:53:32;12.70;92.20
81136;DHT22;70622;50.886;3.890;2023-11-19T14:55:58;12.60;92.20
81136;DHT22;70622;50.886;3.890;2023-11-19T14:58:23;12.50;92.90
81136;DHT22;70622;50.886;3.890;2023-11-19T15:00:51;12.60;92.30
81136;DHT22;70622;50.886;3.890;2023-11-19T15:03:16;12.60;92.30
81136;DHT22;70622;50.886;3.890;2023-11-19T15:05:44;12.60;92.30
81136;DHT22;70622;50.886;3.890;2023-11-19T15:08:11;12.60;92.50
81136;DHT22;70622;50.886;3.890;2023-11-19T15:10:36;12.60;92.80
81136;DHT22;70622;50.886;3.890;2023-11-19T15:13:03;12.70;92.30
81136;DHT22;70622;50.886;3.890;2023-11-19T15:15:29;12.50;91.80
81136;DHT22;70622;50.886;3.890;2023-11-19T15:17:54;12.60;91.90
81136;DHT22;70622;50.886;3.890;2023-11-19T15:20:20;12.60;91.80
81136;DHT22;70622;50.886;3.890;2023-11-19T15:22:46;12.70;91.50
81136;DHT22;70622;50.886;3.890;2023-11-19T15:25:12;12.70;91.10
81136;DHT22;70622;50.886;3.890;2023-11-19T15:27:38;12.80;91.20
81136;DHT22;70622;50.886;3.890;2023-11-19T15:30:04;12.70;91.20
81136;DHT22;70622;50.886;3.890;2023-11-19T15:32:30;12.60;91.70
81136;DHT22;70622;50.886;3.890;2023-11-19T15:34:57;12.30;93.00
81136;DHT22;70622;50.886;3.890;2023-11-19T15:37:23;12.20;93.80
81136;DHT22;70622;50.886;3.890;2023-11-19T15:39:48;12.10;94.00
81136;DHT22;70622;50.886;3.890;2023-11-19T15:42:16;12.00;94.10
81136;DHT22;70622;50.886;3.890;2023-11-19T15:44:42;12.00;94.20
81136;DHT22;70622;50.886;3.890;2023-11-19T15:47:08;12.00;94.10
81136;DHT22;70622;50.886;3.890;2023-11-19T15:49:34;11.90;93.90
81136;DHT22;70622;50.886;3.890;2023-11-19T15:52:00;12.00;93.70